sensor_id;sensor_type;location;lat;lon;timestamp;P1;durP1;ratioP1;P2;durP2;ratioP2
67191;SDS011;54120;53.504;49.426;2022-08-16T00:01:19;11.05;;;2.58;;
67191;SDS011;54120;53.504;49.426;2022-08-16T00:03:47;2.90;;;2.60;;
67191;SDS011;54120;53.504;49.426;2022-08-16T00:06:13;6.20;;;2.60;;
67191;SDS011;54120;53.504;49.426;2022-08-16T00:08:40;8.18;;;2.40;;
67191;SDS011;54120;53.504;49.426;2022-08-16T00:11:09;2.83;;;2.60;;
67191;SDS011;54120;53.504;49.426;2022-08-16T00:13:36;5.40;;;2.60;;
67191;SDS011;54120;53.504;49.426;2022-08-16T00:16:02;3.30;;;2.40;;
67191;SDS011;54120;53.504;49.426;2022-08-16T00:18:29;4.72;;;2.70;;
67191;SDS011;54120;53.504;49.426;2022-08-16T00:20:55;6.25;;;2.63;;
67191;SDS011;54120;53.504;49.426;2022-08-16T00:23:22;6.05;;;2.72;;
67191;SDS011;54120;53.504;49.426;2022-08-16T00:25:48;6.32;;;2.83;;
67191;SDS011;54120;53.504;49.426;2022-08-16T00:28:14;4.15;;;2.58;;
67191;SDS011;54120;53.504;49.426;2022-08-16T00:30:40;6.85;;;2.63;;
67191;SDS011;54120;53.504;49.426;2022-08-16T00:33:07;6.28;;;2.90;;
67191;SDS011;54120;53.504;49.426;2022-08-16T00:35:35;5.43;;;2.70;;
67191;SDS011;54120;53.504;49.426;2022-08-16T00:38:03;9.35;;;2.90;;
67191;SDS011;54120;53.504;49.426;2022-08-16T00:40:43;5.88;;;2.95;;
67191;SDS011;54120;53.504;49.426;2022-08-16T00:43:14;4.70;;;2.97;;
67191;SDS011;54120;53.504;49.426;2022-08-16T00:45:53;12.23;;;3.67;;
67191;SDS011;54120;53.504;49.426;2022-08-16T00:48:22;6.63;;;3.53;;
67191;SDS011;54120;53.504;49.426;2022-08-16T00:50:49;4.00;;;2.88;;
67191;SDS011;54120;53.504;49.426;2022-08-16T00:53:15;6.10;;;3.15;;
67191;SDS011;54120;53.504;49.426;2022-08-16T00:55:48;6.65;;;3.00;;
67191;SDS011;54120;53.504;49.426;2022-08-16T00:58:17;4.53;;;3.15;;
67191;SDS011;54120;53.504;49.426;2022-08-16T01:00:45;5.47;;;3.08;;
67191;SDS011;54120;53.504;49.426;2022-08-16T01:03:12;9.60;;;3.65;;
67191;SDS011;54120;53.504;49.426;2022-08-16T01:05:41;8.43;;;3.97;;
67191;SDS011;54120;53.504;49.426;2022-08-16T01:08:08;10.82;;;4.60;;
67191;SDS011;54120;53.504;49.426;2022-08-16T01:10:37;9.40;;;4.85;;
67191;SDS011;54120;53.504;49.426;2022-08-16T01:13:11;8.93;;;4.50;;
67191;SDS011;54120;53.504;49.426;2022-08-16T01:15:41;10.82;;;5.45;;
67191;SDS011;54120;53.504;49.426;2022-08-16T01:18:12;8.05;;;5.20;;
67191;SDS011;54120;53.504;49.426;2022-08-16T01:20:43;8.68;;;5.43;;
67191;SDS011;54120;53.504;49.426;2022-08-16T01:23:17;14.37;;;5.57;;
67191;SDS011;54120;53.504;49.426;2022-08-16T01:25:48;15.82;;;4.80;;
67191;SDS011;54120;53.504;49.426;2022-08-16T01:28:18;8.00;;;3.90;;
67191;SDS011;54120;53.504;49.426;2022-08-16T01:30:46;7.72;;;4.30;;
67191;SDS011;54120;53.504;49.426;2022-08-16T01:33:15;17.27;;;4.22;;
67191;SDS011;54120;53.504;49.426;2022-08-16T01:38:28;8.30;;;3.95;;
67191;SDS011;54120;53.504;49.426;2022-08-16T01:41:02;8.85;;;4.22;;
67191;SDS011;54120;53.504;49.426;2022-08-16T01:43:33;9.38;;;4.00;;
67191;SDS011;54120;53.504;49.426;2022-08-16T01:46:02;8.05;;;3.38;;
67191;SDS011;54120;53.504;49.426;2022-08-16T01:48:31;7.15;;;3.60;;
67191;SDS011;54120;53.504;49.426;2022-08-16T01:50:58;9.07;;;4.43;;
67191;SDS011;54120;53.504;49.426;2022-08-16T01:53:26;6.60;;;3.92;;
67191;SDS011;54120;53.504;49.426;2022-08-16T01:55:53;6.53;;;3.88;;
67191;SDS011;54120;53.504;49.426;2022-08-16T01:58:20;9.35;;;4.35;;
67191;SDS011;54120;53.504;49.426;2022-08-16T02:00:48;9.57;;;4.32;;
67191;SDS011;54120;53.504;49.426;2022-08-16T02:03:15;10.25;;;3.92;;
67191;SDS011;54120;53.504;49.426;2022-08-16T02:05:41;10.80;;;5.35;;
67191;SDS011;54120;53.504;49.426;2022-08-16T02:08:07;8.80;;;5.70;;
67191;SDS011;54120;53.504;49.426;2022-08-16T02:10:34;14.73;;;6.25;;
67191;SDS011;54120;53.504;49.426;2022-08-16T02:13:05;16.55;;;5.97;;
67191;SDS011;54120;53.504;49.426;2022-08-16T02:15:33;13.15;;;6.35;;
67191;SDS011;54120;53.504;49.426;2022-08-16T02:18:01;17.90;;;7.07;;
67191;SDS011;54120;53.504;49.426;2022-08-16T02:20:29;18.35;;;7.07;;
67191;SDS011;54120;53.504;49.426;2022-08-16T02:22:57;22.15;;;7.50;;
67191;SDS011;54120;53.504;49.426;2022-08-16T02:25:25;19.83;;;7.40;;
67191;SDS011;54120;53.504;49.426;2022-08-16T02:27:52;17.65;;;7.03;;
67191;SDS011;54120;53.504;49.426;2022-08-16T02:30:20;20.88;;;7.70;;
67191;SDS011;54120;53.504;49.426;2022-08-16T02:32:50;13.90;;;7.00;;
67191;SDS011;54120;53.504;49.426;2022-08-16T02:35:16;20.27;;;7.70;;
67191;SDS011;54120;53.504;49.426;2022-08-16T02:37:43;16.67;;;6.53;;
67191;SDS011;54120;53.504;49.426;2022-08-16T02:40:10;18.50;;;6.72;;
67191;SDS011;54120;53.504;49.426;2022-08-16T02:42:37;17.73;;;6.30;;
67191;SDS011;54120;53.504;49.426;2022-08-16T02:45:04;17.33;;;6.57;;
67191;SDS011;54120;53.504;49.426;2022-08-16T02:47:30;15.98;;;6.45;;
67191;SDS011;54120;53.504;49.426;2022-08-16T02:49:57;22.65;;;5.60;;
67191;SDS011;54120;53.504;49.426;2022-08-16T02:52:23;10.20;;;4.40;;
67191;SDS011;54120;53.504;49.426;2022-08-16T02:54:49;9.27;;;4.32;;
67191;SDS011;54120;53.504;49.426;2022-08-16T02:57:15;9.23;;;4.40;;
67191;SDS011;54120;53.504;49.426;2022-08-16T02:59:42;7.88;;;4.50;;
67191;SDS011;54120;53.504;49.426;2022-08-16T03:02:08;7.47;;;4.00;;
67191;SDS011;54120;53.504;49.426;2022-08-16T03:04:35;7.78;;;3.65;;
67191;SDS011;54120;53.504;49.426;2022-08-16T03:07:02;8.02;;;3.58;;
67191;SDS011;54120;53.504;49.426;2022-08-16T03:09:31;8.88;;;3.60;;
67191;SDS011;54120;53.504;49.426;2022-08-16T03:11:58;10.80;;;3.65;;
67191;SDS011;54120;53.504;49.426;2022-08-16T03:14:25;9.60;;;3.97;;
67191;SDS011;54120;53.504;49.426;2022-08-16T03:16:52;6.68;;;3.63;;
67191;SDS011;54120;53.504;49.426;2022-08-16T03:19:19;9.00;;;3.72;;
67191;SDS011;54120;53.504;49.426;2022-08-16T03:21:45;7.60;;;3.83;;
67191;SDS011;54120;53.504;49.426;2022-08-16T03:24:11;10.00;;;3.80;;
67191;SDS011;54120;53.504;49.426;2022-08-16T03:26:38;13.23;;;3.83;;
67191;SDS011;54120;53.504;49.426;2022-08-16T03:29:05;5.32;;;3.45;;
67191;SDS011;54120;53.504;49.426;2022-08-16T03:31:31;7.68;;;3.38;;
67191;SDS011;54120;53.504;49.426;2022-08-16T03:33:57;14.23;;;3.47;;
67191;SDS011;54120;53.504;49.426;2022-08-16T03:36:23;7.93;;;3.05;;
67191;SDS011;54120;53.504;49.426;2022-08-16T03:38:49;3.80;;;2.80;;
67191;SDS011;54120;53.504;49.426;2022-08-16T03:41:16;8.50;;;3.30;;
67191;SDS011;54120;53.504;49.426;2022-08-16T03:43:42;5.65;;;2.70;;
67191;SDS011;54120;53.504;49.426;2022-08-16T03:46:08;5.13;;;3.05;;
67191;SDS011;54120;53.504;49.426;2022-08-16T03:48:36;6.15;;;2.85;;
67191;SDS011;54120;53.504;49.426;2022-08-16T03:51:05;3.78;;;2.67;;
67191;SDS011;54120;53.504;49.426;2022-08-16T03:53:36;4.28;;;2.50;;
67191;SDS011;54120;53.504;49.426;2022-08-16T03:56:03;4.57;;;2.50;;
67191;SDS011;54120;53.504;49.426;2022-08-16T03:58:32;4.70;;;2.60;;
67191;SDS011;54120;53.504;49.426;2022-08-16T04:00:58;4.82;;;2.67;;
67191;SDS011;54120;53.504;49.426;2022-08-16T04:03:25;6.85;;;2.75;;
67191;SDS011;54120;53.504;49.426;2022-08-16T04:05:51;4.25;;;2.65;;
67191;SDS011;54120;53.504;49.426;2022-08-16T04:08:18;3.08;;;2.55;;
67191;SDS011;54120;53.504;49.426;2022-08-16T04:10:46;6.32;;;2.35;;
67191;SDS011;54120;53.504;49.426;2022-08-16T04:13:13;4.80;;;2.80;;
67191;SDS011;54120;53.504;49.426;2022-08-16T04:15:39;6.43;;;2.90;;
67191;SDS011;54120;53.504;49.426;2022-08-16T04:18:06;8.05;;;2.78;;
67191;SDS011;54120;53.504;49.426;2022-08-16T04:20:32;8.98;;;2.78;;
67191;SDS011;54120;53.504;49.426;2022-08-16T04:22:58;3.97;;;2.50;;
67191;SDS011;54120;53.504;49.426;2022-08-16T04:25:25;4.30;;;2.65;;
67191;SDS011;54120;53.504;49.426;2022-08-16T04:27:52;2.65;;;2.33;;
67191;SDS011;54120;53.504;49.426;2022-08-16T04:30:19;5.50;;;2.70;;
67191;SDS011;54120;53.504;49.426;2022-08-16T04:32:47;4.80;;;2.70;;
67191;SDS011;54120;53.504;49.426;2022-08-16T04:35:15;5.40;;;2.80;;
67191;SDS011;54120;53.504;49.426;2022-08-16T04:37:44;9.25;;;2.60;;
67191;SDS011;54120;53.504;49.426;2022-08-16T04:40:11;8.80;;;2.30;;
67191;SDS011;54120;53.504;49.426;2022-08-16T04:42:38;4.00;;;2.10;;
67191;SDS011;54120;53.504;49.426;2022-08-16T04:45:06;5.60;;;2.30;;
67191;SDS011;54120;53.504;49.426;2022-08-16T04:47:35;3.97;;;2.40;;
67191;SDS011;54120;53.504;49.426;2022-08-16T04:50:07;8.25;;;2.53;;
67191;SDS011;54120;53.504;49.426;2022-08-16T04:52:36;2.50;;;2.30;;
67191;SDS011;54120;53.504;49.426;2022-08-16T04:55:04;4.63;;;2.53;;
67191;SDS011;54120;53.504;49.426;2022-08-16T04:57:38;4.07;;;2.50;;
67191;SDS011;54120;53.504;49.426;2022-08-16T05:00:06;5.60;;;2.30;;
67191;SDS011;54120;53.504;49.426;2022-08-16T05:02:37;3.90;;;2.40;;
67191;SDS011;54120;53.504;49.426;2022-08-16T05:05:03;4.35;;;2.40;;
67191;SDS011;54120;53.504;49.426;2022-08-16T05:07:30;5.97;;;2.28;;
67191;SDS011;54120;53.504;49.426;2022-08-16T05:09:56;7.30;;;2.40;;
67191;SDS011;54120;53.504;49.426;2022-08-16T05:12:22;6.78;;;2.10;;
67191;SDS011;54120;53.504;49.426;2022-08-16T05:14:48;4.75;;;2.30;;
67191;SDS011;54120;53.504;49.426;2022-08-16T05:17:15;5.25;;;2.42;;
67191;SDS011;54120;53.504;49.426;2022-08-16T05:19:41;4.82;;;2.10;;
67191;SDS011;54120;53.504;49.426;2022-08-16T05:22:07;4.35;;;2.28;;
67191;SDS011;54120;53.504;49.426;2022-08-16T05:24:33;5.88;;;2.50;;
67191;SDS011;54120;53.504;49.426;2022-08-16T05:26:59;17.75;;;2.58;;
67191;SDS011;54120;53.504;49.426;2022-08-16T05:29:26;7.55;;;2.58;;
67191;SDS011;54120;53.504;49.426;2022-08-16T05:31:52;5.00;;;2.40;;
67191;SDS011;54120;53.504;49.426;2022-08-16T05:34:18;2.83;;;2.20;;
67191;SDS011;54120;53.504;49.426;2022-08-16T05:36:46;5.70;;;2.60;;
67191;SDS011;54120;53.504;49.426;2022-08-16T05:39:18;8.48;;;1.98;;
67191;SDS011;54120;53.504;49.426;2022-08-16T05:41:44;5.35;;;2.10;;
67191;SDS011;54120;53.504;49.426;2022-08-16T05:44:11;3.58;;;2.00;;
67191;SDS011;54120;53.504;49.426;2022-08-16T05:46:39;6.40;;;2.92;;
67191;SDS011;54120;53.504;49.426;2022-08-16T05:49:06;3.22;;;2.20;;
67191;SDS011;54120;53.504;49.426;2022-08-16T05:51:32;4.32;;;2.25;;
67191;SDS011;54120;53.504;49.426;2022-08-16T05:54:00;4.22;;;2.13;;
67191;SDS011;54120;53.504;49.426;2022-08-16T05:56:26;7.55;;;2.42;;
67191;SDS011;54120;53.504;49.426;2022-08-16T05:58:52;4.38;;;2.05;;
67191;SDS011;54120;53.504;49.426;2022-08-16T06:01:18;4.13;;;2.38;;
67191;SDS011;54120;53.504;49.426;2022-08-16T06:03:44;4.10;;;2.00;;
67191;SDS011;54120;53.504;49.426;2022-08-16T06:06:10;2.67;;;2.00;;
67191;SDS011;54120;53.504;49.426;2022-08-16T06:08:36;4.15;;;1.83;;
67191;SDS011;54120;53.504;49.426;2022-08-16T06:11:02;3.97;;;1.95;;
67191;SDS011;54120;53.504;49.426;2022-08-16T06:13:28;3.97;;;2.17;;
67191;SDS011;54120;53.504;49.426;2022-08-16T06:15:55;2.30;;;2.00;;
67191;SDS011;54120;53.504;49.426;2022-08-16T06:18:21;3.42;;;2.15;;
67191;SDS011;54120;53.504;49.426;2022-08-16T06:20:47;8.32;;;2.05;;
67191;SDS011;54120;53.504;49.426;2022-08-16T06:23:13;3.67;;;2.10;;
67191;SDS011;54120;53.504;49.426;2022-08-16T06:25:39;2.88;;;1.77;;
67191;SDS011;54120;53.504;49.426;2022-08-16T06:28:07;5.53;;;2.10;;
67191;SDS011;54120;53.504;49.426;2022-08-16T06:30:34;2.58;;;1.90;;
67191;SDS011;54120;53.504;49.426;2022-08-16T06:33:02;5.07;;;2.05;;
67191;SDS011;54120;53.504;49.426;2022-08-16T06:35:28;3.20;;;1.80;;
67191;SDS011;54120;53.504;49.426;2022-08-16T06:37:56;3.35;;;2.00;;
67191;SDS011;54120;53.504;49.426;2022-08-16T06:40:22;2.60;;;1.98;;
67191;SDS011;54120;53.504;49.426;2022-08-16T06:42:50;2.20;;;2.00;;
67191;SDS011;54120;53.504;49.426;2022-08-16T06:45:17;4.47;;;2.20;;
67191;SDS011;54120;53.504;49.426;2022-08-16T06:47:43;5.38;;;2.00;;
67191;SDS011;54120;53.504;49.426;2022-08-16T06:50:10;3.30;;;2.08;;
67191;SDS011;54120;53.504;49.426;2022-08-16T06:52:36;3.60;;;2.10;;
67191;SDS011;54120;53.504;49.426;2022-08-16T06:55:03;2.45;;;1.60;;
67191;SDS011;54120;53.504;49.426;2022-08-16T06:57:31;2.60;;;2.00;;
67191;SDS011;54120;53.504;49.426;2022-08-16T06:59:57;3.53;;;1.80;;
67191;SDS011;54120;53.504;49.426;2022-08-16T07:02:24;4.38;;;1.83;;
67191;SDS011;54120;53.504;49.426;2022-08-16T07:04:50;3.60;;;2.08;;
67191;SDS011;54120;53.504;49.426;2022-08-16T07:07:18;2.13;;;1.77;;
67191;SDS011;54120;53.504;49.426;2022-08-16T07:09:45;4.75;;;2.10;;
67191;SDS011;54120;53.504;49.426;2022-08-16T07:12:14;2.58;;;2.13;;
67191;SDS011;54120;53.504;49.426;2022-08-16T07:14:41;3.45;;;1.92;;
67191;SDS011;54120;53.504;49.426;2022-08-16T07:17:07;4.70;;;1.85;;
67191;SDS011;54120;53.504;49.426;2022-08-16T07:19:33;1.92;;;1.75;;
67191;SDS011;54120;53.504;49.426;2022-08-16T07:21:59;4.53;;;2.10;;
67191;SDS011;54120;53.504;49.426;2022-08-16T07:24:28;3.20;;;2.08;;
67191;SDS011;54120;53.504;49.426;2022-08-16T07:26:55;5.13;;;2.10;;
67191;SDS011;54120;53.504;49.426;2022-08-16T07:29:23;6.00;;;2.20;;
67191;SDS011;54120;53.504;49.426;2022-08-16T07:31:49;3.22;;;2.10;;
67191;SDS011;54120;53.504;49.426;2022-08-16T07:34:15;3.22;;;2.08;;
67191;SDS011;54120;53.504;49.426;2022-08-16T07:36:42;4.53;;;2.10;;
67191;SDS011;54120;53.504;49.426;2022-08-16T07:39:10;2.42;;;2.08;;
67191;SDS011;54120;53.504;49.426;2022-08-16T07:41:37;3.47;;;2.00;;
67191;SDS011;54120;53.504;49.426;2022-08-16T07:44:04;4.55;;;2.03;;
67191;SDS011;54120;53.504;49.426;2022-08-16T07:46:33;3.90;;;2.20;;
67191;SDS011;54120;53.504;49.426;2022-08-16T07:48:59;6.30;;;2.42;;
67191;SDS011;54120;53.504;49.426;2022-08-16T07:51:25;4.65;;;2.30;;
67191;SDS011;54120;53.504;49.426;2022-08-16T07:53:51;2.95;;;2.13;;
67191;SDS011;54120;53.504;49.426;2022-08-16T07:56:18;2.72;;;2.03;;
67191;SDS011;54120;53.504;49.426;2022-08-16T07:58:44;2.78;;;2.22;;
67191;SDS011;54120;53.504;49.426;2022-08-16T08:01:11;2.60;;;2.33;;
67191;SDS011;54120;53.504;49.426;2022-08-16T08:03:38;6.00;;;2.20;;
67191;SDS011;54120;53.504;49.426;2022-08-16T08:06:06;4.88;;;2.20;;
67191;SDS011;54120;53.504;49.426;2022-08-16T08:08:33;4.25;;;2.28;;
67191;SDS011;54120;53.504;49.426;2022-08-16T08:10:59;4.28;;;2.30;;
67191;SDS011;54120;53.504;49.426;2022-08-16T08:13:25;2.33;;;2.00;;
67191;SDS011;54120;53.504;49.426;2022-08-16T08:15:53;6.10;;;2.92;;
67191;SDS011;54120;53.504;49.426;2022-08-16T08:18:19;2.15;;;2.05;;
67191;SDS011;54120;53.504;49.426;2022-08-16T08:20:46;3.83;;;2.20;;
67191;SDS011;54120;53.504;49.426;2022-08-16T08:23:12;3.95;;;2.15;;
67191;SDS011;54120;53.504;49.426;2022-08-16T08:25:40;7.40;;;2.13;;
67191;SDS011;54120;53.504;49.426;2022-08-16T08:28:07;1.90;;;1.80;;
67191;SDS011;54120;53.504;49.426;2022-08-16T08:30:34;4.57;;;2.00;;
67191;SDS011;54120;53.504;49.426;2022-08-16T08:33:00;2.67;;;2.15;;
67191;SDS011;54120;53.504;49.426;2022-08-16T08:35:27;4.20;;;2.00;;
67191;SDS011;54120;53.504;49.426;2022-08-16T08:37:54;4.95;;;2.42;;
67191;SDS011;54120;53.504;49.426;2022-08-16T08:40:20;3.22;;;2.00;;
67191;SDS011;54120;53.504;49.426;2022-08-16T08:42:48;2.20;;;2.10;;
67191;SDS011;54120;53.504;49.426;2022-08-16T08:45:16;4.95;;;2.45;;
67191;SDS011;54120;53.504;49.426;2022-08-16T08:47:43;7.22;;;2.45;;
67191;SDS011;54120;53.504;49.426;2022-08-16T08:50:11;2.85;;;2.13;;
67191;SDS011;54120;53.504;49.426;2022-08-16T08:52:41;3.88;;;2.30;;
67191;SDS011;54120;53.504;49.426;2022-08-16T08:55:08;3.58;;;2.10;;
67191;SDS011;54120;53.504;49.426;2022-08-16T08:57:37;3.30;;;2.40;;
67191;SDS011;54120;53.504;49.426;2022-08-16T09:00:05;6.55;;;2.22;;
67191;SDS011;54120;53.504;49.426;2022-08-16T09:02:32;6.45;;;2.03;;
67191;SDS011;54120;53.504;49.426;2022-08-16T09:04:58;2.85;;;2.33;;
67191;SDS011;54120;53.504;49.426;2022-08-16T09:07:25;6.07;;;4.32;;
67191;SDS011;54120;53.504;49.426;2022-08-16T09:09:51;2.20;;;2.08;;
67191;SDS011;54120;53.504;49.426;2022-08-16T09:12:17;3.53;;;2.40;;
67191;SDS011;54120;53.504;49.426;2022-08-16T09:14:43;5.32;;;2.30;;
67191;SDS011;54120;53.504;49.426;2022-08-16T09:17:10;4.20;;;2.20;;
67191;SDS011;54120;53.504;49.426;2022-08-16T09:19:37;2.20;;;2.08;;
67191;SDS011;54120;53.504;49.426;2022-08-16T09:22:04;3.35;;;2.10;;
67191;SDS011;54120;53.504;49.426;2022-08-16T09:24:31;4.10;;;2.28;;
67191;SDS011;54120;53.504;49.426;2022-08-16T09:26:58;2.58;;;2.10;;
67191;SDS011;54120;53.504;49.426;2022-08-16T09:29:24;4.03;;;2.13;;
67191;SDS011;54120;53.504;49.426;2022-08-16T09:31:50;3.53;;;2.08;;
67191;SDS011;54120;53.504;49.426;2022-08-16T09:34:16;6.60;;;2.60;;
67191;SDS011;54120;53.504;49.426;2022-08-16T09:36:42;4.07;;;2.15;;
67191;SDS011;54120;53.504;49.426;2022-08-16T09:39:09;4.55;;;2.40;;
67191;SDS011;54120;53.504;49.426;2022-08-16T09:41:35;6.82;;;1.95;;
67191;SDS011;54120;53.504;49.426;2022-08-16T09:44:01;4.00;;;2.25;;
67191;SDS011;54120;53.504;49.426;2022-08-16T09:46:29;4.57;;;2.10;;
67191;SDS011;54120;53.504;49.426;2022-08-16T09:48:56;4.47;;;2.10;;
67191;SDS011;54120;53.504;49.426;2022-08-16T09:51:23;3.92;;;2.10;;
67191;SDS011;54120;53.504;49.426;2022-08-16T09:53:55;5.05;;;2.05;;
67191;SDS011;54120;53.504;49.426;2022-08-16T09:56:26;4.93;;;2.08;;
67191;SDS011;54120;53.504;49.426;2022-08-16T09:58:55;1.80;;;1.70;;
67191;SDS011;54120;53.504;49.426;2022-08-16T10:01:23;3.42;;;2.03;;
67191;SDS011;54120;53.504;49.426;2022-08-16T10:03:49;3.13;;;1.83;;
67191;SDS011;54120;53.504;49.426;2022-08-16T10:06:17;4.30;;;2.10;;
67191;SDS011;54120;53.504;49.426;2022-08-16T10:08:46;4.47;;;2.13;;
67191;SDS011;54120;53.504;49.426;2022-08-16T10:11:14;7.15;;;1.90;;
67191;SDS011;54120;53.504;49.426;2022-08-16T10:13:58;5.30;;;2.10;;
67191;SDS011;54120;53.504;49.426;2022-08-16T10:16:25;5.47;;;1.70;;
67191;SDS011;54120;53.504;49.426;2022-08-16T10:18:51;4.35;;;2.00;;
67191;SDS011;54120;53.504;49.426;2022-08-16T10:21:17;4.93;;;2.03;;
67191;SDS011;54120;53.504;49.426;2022-08-16T10:23:44;4.38;;;1.90;;
67191;SDS011;54120;53.504;49.426;2022-08-16T10:26:11;3.72;;;2.05;;
67191;SDS011;54120;53.504;49.426;2022-08-16T10:28:38;1.70;;;1.60;;
67191;SDS011;54120;53.504;49.426;2022-08-16T10:31:04;2.00;;;1.90;;
67191;SDS011;54120;53.504;49.426;2022-08-16T10:33:32;2.88;;;1.75;;
67191;SDS011;54120;53.504;49.426;2022-08-16T10:36:00;4.78;;;1.90;;
67191;SDS011;54120;53.504;49.426;2022-08-16T10:38:31;3.55;;;1.80;;
67191;SDS011;54120;53.504;49.426;2022-08-16T10:40:59;3.08;;;2.00;;
67191;SDS011;54120;53.504;49.426;2022-08-16T10:43:26;11.15;;;1.77;;
67191;SDS011;54120;53.504;49.426;2022-08-16T10:45:53;7.65;;;1.80;;
67191;SDS011;54120;53.504;49.426;2022-08-16T10:48:19;2.35;;;1.70;;
67191;SDS011;54120;53.504;49.426;2022-08-16T10:50:46;2.33;;;1.60;;
67191;SDS011;54120;53.504;49.426;2022-08-16T10:53:12;2.28;;;2.03;;
67191;SDS011;54120;53.504;49.426;2022-08-16T10:55:39;6.35;;;1.98;;
67191;SDS011;54120;53.504;49.426;2022-08-16T10:58:07;2.10;;;1.70;;
67191;SDS011;54120;53.504;49.426;2022-08-16T11:00:36;5.85;;;1.98;;
67191;SDS011;54120;53.504;49.426;2022-08-16T11:03:05;10.85;;;1.92;;
67191;SDS011;54120;53.504;49.426;2022-08-16T11:05:33;1.88;;;1.77;;
67191;SDS011;54120;53.504;49.426;2022-08-16T11:08:01;4.10;;;1.85;;
67191;SDS011;54120;53.504;49.426;2022-08-16T11:10:31;3.00;;;2.47;;
67191;SDS011;54120;53.504;49.426;2022-08-16T11:13:02;9.30;;;1.88;;
67191;SDS011;54120;53.504;49.426;2022-08-16T11:15:31;7.90;;;2.70;;
67191;SDS011;54120;53.504;49.426;2022-08-16T11:17:58;5.30;;;1.88;;
67191;SDS011;54120;53.504;49.426;2022-08-16T11:20:25;3.55;;;1.80;;
67191;SDS011;54120;53.504;49.426;2022-08-16T11:22:53;3.03;;;1.90;;
67191;SDS011;54120;53.504;49.426;2022-08-16T11:25:22;3.78;;;1.70;;
67191;SDS011;54120;53.504;49.426;2022-08-16T11:27:50;2.72;;;2.10;;
67191;SDS011;54120;53.504;49.426;2022-08-16T11:30:17;4.53;;;1.85;;
67191;SDS011;54120;53.504;49.426;2022-08-16T11:32:44;2.60;;;1.90;;
67191;SDS011;54120;53.504;49.426;2022-08-16T11:35:18;4.30;;;1.95;;
67191;SDS011;54120;53.504;49.426;2022-08-16T11:37:48;2.75;;;2.03;;
67191;SDS011;54120;53.504;49.426;2022-08-16T11:40:17;4.20;;;2.13;;
67191;SDS011;54120;53.504;49.426;2022-08-16T11:42:43;5.43;;;2.10;;
67191;SDS011;54120;53.504;49.426;2022-08-16T11:45:09;6.38;;;2.10;;
67191;SDS011;54120;53.504;49.426;2022-08-16T11:47:36;3.20;;;2.05;;
67191;SDS011;54120;53.504;49.426;2022-08-16T11:50:04;3.53;;;2.22;;
67191;SDS011;54120;53.504;49.426;2022-08-16T11:52:35;5.60;;;1.95;;
67191;SDS011;54120;53.504;49.426;2022-08-16T11:55:06;3.28;;;1.60;;
67191;SDS011;54120;53.504;49.426;2022-08-16T11:57:34;10.23;;;1.95;;
67191;SDS011;54120;53.504;49.426;2022-08-16T12:00:03;2.47;;;1.98;;
67191;SDS011;54120;53.504;49.426;2022-08-16T12:02:32;4.53;;;1.80;;
67191;SDS011;54120;53.504;49.426;2022-08-16T12:04:58;2.17;;;1.92;;
67191;SDS011;54120;53.504;49.426;2022-08-16T12:07:25;2.47;;;1.75;;
67191;SDS011;54120;53.504;49.426;2022-08-16T12:09:51;3.13;;;1.80;;
67191;SDS011;54120;53.504;49.426;2022-08-16T12:12:18;3.05;;;2.30;;
67191;SDS011;54120;53.504;49.426;2022-08-16T12:14:45;2.83;;;1.83;;
67191;SDS011;54120;53.504;49.426;2022-08-16T12:17:11;2.97;;;2.15;;
67191;SDS011;54120;53.504;49.426;2022-08-16T12:19:40;5.55;;;2.00;;
67191;SDS011;54120;53.504;49.426;2022-08-16T12:22:06;4.95;;;1.85;;
67191;SDS011;54120;53.504;49.426;2022-08-16T12:24:33;11.35;;;2.72;;
67191;SDS011;54120;53.504;49.426;2022-08-16T12:26:59;3.25;;;1.50;;
67191;SDS011;54120;53.504;49.426;2022-08-16T12:29:26;2.63;;;1.60;;
67191;SDS011;54120;53.504;49.426;2022-08-16T12:31:54;4.50;;;1.98;;
67191;SDS011;54120;53.504;49.426;2022-08-16T12:34:20;4.50;;;1.90;;
67191;SDS011;54120;53.504;49.426;2022-08-16T12:36:46;1.85;;;1.75;;
67191;SDS011;54120;53.504;49.426;2022-08-16T12:39:13;2.42;;;1.60;;
67191;SDS011;54120;53.504;49.426;2022-08-16T12:41:39;6.15;;;1.95;;
67191;SDS011;54120;53.504;49.426;2022-08-16T12:44:06;3.75;;;1.85;;
67191;SDS011;54120;53.504;49.426;2022-08-16T12:46:33;4.70;;;2.38;;
67191;SDS011;54120;53.504;49.426;2022-08-16T12:49:00;4.68;;;2.45;;
67191;SDS011;54120;53.504;49.426;2022-08-16T12:51:29;4.50;;;1.90;;
67191;SDS011;54120;53.504;49.426;2022-08-16T12:54:05;3.45;;;1.95;;
67191;SDS011;54120;53.504;49.426;2022-08-16T12:56:34;3.72;;;2.08;;
67191;SDS011;54120;53.504;49.426;2022-08-16T12:59:05;4.28;;;1.88;;
67191;SDS011;54120;53.504;49.426;2022-08-16T13:01:36;3.60;;;1.60;;
67191;SDS011;54120;53.504;49.426;2022-08-16T13:04:04;3.38;;;1.75;;
67191;SDS011;54120;53.504;49.426;2022-08-16T13:06:31;2.00;;;1.80;;
67191;SDS011;54120;53.504;49.426;2022-08-16T13:08:58;4.28;;;2.22;;
67191;SDS011;54120;53.504;49.426;2022-08-16T13:11:35;4.07;;;2.10;;
67191;SDS011;54120;53.504;49.426;2022-08-16T13:14:10;1.98;;;1.50;;
67191;SDS011;54120;53.504;49.426;2022-08-16T13:16:36;3.20;;;1.80;;
67191;SDS011;54120;53.504;49.426;2022-08-16T13:19:02;4.25;;;1.90;;
67191;SDS011;54120;53.504;49.426;2022-08-16T13:21:29;2.95;;;2.10;;
67191;SDS011;54120;53.504;49.426;2022-08-16T13:23:55;2.88;;;1.95;;
67191;SDS011;54120;53.504;49.426;2022-08-16T13:26:22;7.18;;;2.40;;
67191;SDS011;54120;53.504;49.426;2022-08-16T13:28:49;1.80;;;1.60;;
67191;SDS011;54120;53.504;49.426;2022-08-16T13:31:15;2.78;;;2.30;;
67191;SDS011;54120;53.504;49.426;2022-08-16T13:33:41;5.93;;;2.28;;
67191;SDS011;54120;53.504;49.426;2022-08-16T13:36:08;6.10;;;2.00;;
67191;SDS011;54120;53.504;49.426;2022-08-16T13:38:37;3.58;;;1.90;;
67191;SDS011;54120;53.504;49.426;2022-08-16T13:41:04;8.43;;;1.75;;
67191;SDS011;54120;53.504;49.426;2022-08-16T13:43:33;5.13;;;1.77;;
67191;SDS011;54120;53.504;49.426;2022-08-16T13:45:59;3.53;;;1.98;;
67191;SDS011;54120;53.504;49.426;2022-08-16T13:48:29;4.15;;;1.90;;
67191;SDS011;54120;53.504;49.426;2022-08-16T13:50:56;2.83;;;2.15;;
67191;SDS011;54120;53.504;49.426;2022-08-16T13:53:23;4.97;;;2.03;;
67191;SDS011;54120;53.504;49.426;2022-08-16T13:55:51;6.88;;;1.90;;
67191;SDS011;54120;53.504;49.426;2022-08-16T13:58:18;7.07;;;1.98;;
67191;SDS011;54120;53.504;49.426;2022-08-16T14:00:44;2.55;;;2.30;;
67191;SDS011;54120;53.504;49.426;2022-08-16T14:03:11;5.28;;;2.13;;
67191;SDS011;54120;53.504;49.426;2022-08-16T14:05:37;2.05;;;1.70;;
67191;SDS011;54120;53.504;49.426;2022-08-16T14:08:03;2.28;;;1.80;;
67191;SDS011;54120;53.504;49.426;2022-08-16T14:10:29;2.38;;;1.75;;
67191;SDS011;54120;53.504;49.426;2022-08-16T14:12:55;3.10;;;1.70;;
67191;SDS011;54120;53.504;49.426;2022-08-16T14:15:21;4.07;;;1.60;;
67191;SDS011;54120;53.504;49.426;2022-08-16T14:17:47;2.05;;;1.85;;
67191;SDS011;54120;53.504;49.426;2022-08-16T14:20:14;2.25;;;1.80;;
67191;SDS011;54120;53.504;49.426;2022-08-16T14:22:41;3.05;;;1.88;;
67191;SDS011;54120;53.504;49.426;2022-08-16T14:25:10;4.78;;;1.88;;
67191;SDS011;54120;53.504;49.426;2022-08-16T14:27:39;2.60;;;1.90;;
67191;SDS011;54120;53.504;49.426;2022-08-16T14:30:06;5.60;;;2.00;;
67191;SDS011;54120;53.504;49.426;2022-08-16T14:32:34;10.45;;;2.40;;
67191;SDS011;54120;53.504;49.426;2022-08-16T14:35:02;1.98;;;1.60;;
67191;SDS011;54120;53.504;49.426;2022-08-16T14:37:34;2.35;;;1.90;;